createdAt,value
2023-02-09T00:02:13.811Z,29.08
2023-02-09T00:04:40.346Z,29.06
2023-02-09T00:07:06.908Z,29.04
2023-02-09T00:09:33.383Z,29.18
2023-02-09T00:12:18.510Z,29.18
2023-02-09T00:14:44.981Z,29.25
2023-02-09T00:17:11.538Z,29.10
2023-02-09T00:19:38.196Z,29.14
2023-02-09T00:22:04.852Z,29.17
2023-02-09T00:24:31.430Z,28.92
2023-02-09T00:26:57.902Z,29.19
2023-02-09T00:29:24.394Z,29.11
2023-02-09T00:31:51.608Z,29.28
2023-02-09T00:34:19.123Z,29.07
2023-02-09T00:36:45.716Z,29.09
2023-02-09T00:39:12.343Z,28.98
2023-02-09T00:41:57.392Z,28.90
2023-02-09T00:44:24.022Z,28.81
2023-02-09T00:46:52.332Z,28.89
2023-02-09T00:49:18.906Z,28.97
2023-02-09T00:51:45.538Z,29.06
2023-02-09T00:54:13.621Z,29.20
2023-02-09T00:56:40.158Z,28.74
2023-02-09T00:59:06.839Z,28.95
2023-02-09T01:01:33.370Z,28.62
2023-02-09T01:03:59.847Z,28.68
2023-02-09T01:06:26.487Z,28.51
2023-02-09T01:08:53.138Z,28.51
2023-02-09T01:11:20.157Z,28.57
2023-02-09T01:13:47.365Z,28.61
2023-02-09T01:16:16.551Z,28.62
2023-02-09T01:18:43.329Z,28.72
2023-02-09T01:21:14.418Z,28.51
2023-02-09T01:23:41.340Z,28.56
2023-02-09T01:26:10.004Z,28.65
2023-02-09T01:28:37.161Z,28.62
2023-02-09T01:31:17.942Z,28.75
2023-02-09T01:33:44.617Z,28.82
2023-02-09T01:36:11.123Z,28.60
2023-02-09T01:38:37.672Z,28.72
2023-02-09T01:41:04.248Z,28.74
2023-02-09T01:43:50.941Z,28.38
2023-02-09T01:46:17.655Z,28.38
2023-02-09T01:48:44.487Z,28.56
2023-02-09T01:51:11.767Z,28.61
2023-02-09T01:53:38.605Z,28.49
2023-02-09T01:56:10.812Z,28.37
2023-02-09T01:58:37.469Z,28.29
2023-02-09T02:01:04.121Z,28.12
2023-02-09T02:03:31.863Z,28.21
2023-02-09T02:06:14.023Z,28.19
2023-02-09T02:08:48.202Z,28.36
2023-02-09T02:11:16.137Z,28.18
2023-02-09T02:13:42.686Z,28.19
2023-02-09T02:16:30.598Z,28.08
2023-02-09T02:19:10.246Z,27.99
2023-02-09T02:21:39.600Z,28.08
2023-02-09T02:24:36.739Z,28.23
2023-02-09T02:27:20.925Z,28.16
2023-02-09T02:30:13.346Z,28.23
2023-02-09T02:32:45.671Z,28.18
2023-02-09T02:35:21.004Z,28.33
2023-02-09T02:37:50.224Z,28.31
2023-02-09T02:40:32.498Z,28.29
2023-02-09T02:43:22.356Z,28.33
2023-02-09T02:46:04.472Z,28.17
2023-02-09T02:48:57.198Z,28.54
2023-02-09T02:51:45.295Z,28.28
2023-02-09T02:54:27.625Z,28.13
2023-02-09T02:57:01.767Z,28.23
2023-02-09T02:59:45.993Z,28.27
2023-02-09T03:02:26.684Z,28.14
2023-02-09T03:04:54.510Z,28.19
2023-02-09T03:07:21.065Z,28.15
2023-02-09T03:09:51.934Z,28.31
2023-02-09T03:12:36.711Z,28.33
2023-02-09T03:15:14.843Z,28.11
2023-02-09T03:18:06.756Z,28.22
2023-02-09T03:20:53.897Z,28.68
2023-02-09T03:23:31.849Z,28.35
2023-02-09T03:26:01.490Z,28.08
2023-02-09T03:28:32.077Z,28.14
2023-02-09T03:30:58.817Z,28.24
2023-02-09T03:33:29.578Z,28.12
2023-02-09T03:35:59.006Z,28.18
2023-02-09T03:38:26.317Z,27.99
2023-02-09T03:40:54.473Z,28.28
2023-02-09T03:43:41.407Z,28.43
2023-02-09T03:46:07.953Z,28.14
2023-02-09T03:48:35.344Z,28.25
2023-02-09T03:51:01.910Z,28.39
2023-02-09T03:53:28.404Z,28.35
2023-02-09T03:55:54.888Z,28.32
2023-02-09T03:58:21.781Z,28.33
2023-02-09T04:00:48.323Z,28.32
2023-02-09T04:03:14.792Z,28.39
2023-02-09T04:05:41.268Z,28.32
2023-02-09T04:08:07.795Z,28.43
2023-02-09T04:10:34.386Z,28.30
2023-02-09T04:13:00.931Z,28.50
2023-02-09T04:15:27.469Z,28.47
2023-02-09T04:17:53.976Z,28.28
2023-02-09T04:20:20.434Z,28.46
2023-02-09T04:22:46.894Z,28.52
2023-02-09T04:25:13.410Z,28.27
2023-02-09T04:27:39.871Z,28.52
2023-02-09T04:30:06.958Z,28.58
2023-02-09T04:32:33.487Z,28.60
2023-02-09T04:34:59.978Z,29.06
2023-02-09T04:37:26.461Z,28.77
2023-02-09T04:39:52.925Z,28.82
2023-02-09T04:42:19.484Z,29.10
2023-02-09T04:44:45.993Z,29.19
2023-02-09T04:47:12.485Z,29.40
2023-02-09T04:49:39.026Z,29.38
2023-02-09T04:52:05.562Z,29.65
2023-02-09T04:54:32.047Z,29.61
2023-02-09T04:57:17.249Z,29.78
2023-02-09T04:59:44.987Z,29.59
2023-02-09T05:02:11.624Z,29.55
2023-02-09T05:04:38.068Z,29.57
2023-02-09T05:07:04.569Z,29.95
2023-02-09T05:09:31.180Z,29.71
2023-02-09T05:11:57.615Z,29.83
2023-02-09T05:14:24.164Z,29.79
2023-02-09T05:16:50.691Z,30.13
2023-02-09T05:19:17.225Z,30.58
2023-02-09T05:21:43.706Z,29.52
2023-02-09T05:24:10.284Z,29.69
2023-02-09T05:26:36.998Z,29.60
2023-02-09T05:29:04.200Z,29.76
2023-02-09T05:31:30.778Z,29.48
2023-02-09T05:33:57.352Z,29.38
2023-02-09T05:36:24.035Z,29.62
2023-02-09T05:38:50.545Z,29.67
2023-02-09T05:41:35.345Z,29.92
2023-02-09T05:44:01.973Z,29.55
2023-02-09T05:46:28.589Z,29.94
2023-02-09T05:48:55.149Z,29.66
2023-02-09T05:51:21.992Z,30.19
2023-02-09T05:53:48.533Z,30.25
2023-02-09T05:56:15.085Z,29.56
2023-02-09T05:58:41.566Z,29.71
2023-02-09T06:01:08.059Z,29.64
2023-02-09T06:03:34.672Z,29.51
2023-02-09T06:06:01.295Z,29.44
2023-02-09T06:08:27.847Z,29.39
2023-02-09T06:10:54.296Z,29.53
2023-02-09T06:13:20.946Z,29.46
2023-02-09T06:15:47.426Z,29.83
2023-02-09T06:18:13.904Z,29.50
2023-02-09T06:20:40.526Z,29.59
2023-02-09T06:23:07.104Z,29.65
2023-02-09T06:25:33.656Z,29.67
2023-02-09T06:28:01.804Z,29.85
2023-02-09T06:30:28.362Z,29.81
2023-02-09T06:32:54.856Z,30.03
2023-02-09T06:35:21.374Z,29.74
2023-02-09T06:37:47.996Z,29.91
2023-02-09T06:40:14.591Z,29.62
2023-02-09T06:42:43.872Z,29.45
2023-02-09T06:45:16.194Z,29.49
2023-02-09T06:47:43.907Z,29.97
2023-02-09T06:50:12.482Z,29.44
2023-02-09T06:52:39.205Z,29.95
2023-02-09T06:55:07.405Z,29.55
2023-02-09T06:57:35.053Z,29.47
2023-02-09T07:00:02.814Z,29.69
2023-02-09T07:02:29.322Z,29.40
2023-02-09T07:04:55.862Z,29.33
2023-02-09T07:07:23.965Z,30.07
2023-02-09T07:09:51.845Z,29.62
2023-02-09T07:12:18.371Z,29.73
2023-02-09T07:14:45.799Z,29.32
2023-02-09T07:17:12.320Z,29.64
2023-02-09T07:19:38.792Z,29.21
2023-02-09T07:22:05.255Z,29.39
2023-02-09T07:24:31.732Z,29.09
2023-02-09T07:26:58.373Z,29.41
2023-02-09T07:29:24.925Z,29.10
2023-02-09T07:31:51.460Z,29.30
2023-02-09T07:34:17.959Z,28.82
2023-02-09T07:36:47.748Z,29.26
2023-02-09T07:39:15.025Z,29.14
2023-02-09T07:41:41.981Z,29.32
2023-02-09T07:44:09.459Z,29.16
2023-02-09T07:46:36.409Z,28.95
2023-02-09T07:49:03.019Z,29.01
2023-02-09T07:51:29.668Z,29.12
2023-02-09T07:53:58.087Z,29.15
2023-02-09T07:56:27.812Z,29.04
2023-02-09T07:58:54.653Z,29.22
2023-02-09T08:01:21.762Z,28.90
2023-02-09T08:03:49.834Z,29.20
2023-02-09T08:06:36.289Z,28.93
2023-02-09T08:09:08.206Z,29.14
2023-02-09T08:11:56.159Z,29.19
2023-02-09T08:14:28.442Z,29.08
2023-02-09T08:17:19.941Z,29.33
2023-02-09T08:20:24.839Z,29.33
2023-02-09T08:22:54.528Z,29.06
2023-02-09T08:25:23.860Z,29.09
2023-02-09T08:27:51.445Z,29.39
2023-02-09T08:30:19.060Z,29.44
2023-02-09T08:32:45.679Z,29.13
2023-02-09T08:35:12.416Z,29.50
2023-02-09T08:37:38.903Z,29.23
2023-02-09T08:40:05.848Z,29.63
2023-02-09T08:42:32.489Z,29.45
2023-02-09T08:44:58.953Z,29.43
2023-02-09T08:47:25.601Z,29.58
2023-02-09T08:49:52.131Z,29.44
2023-02-09T08:52:18.832Z,29.30
2023-02-09T08:54:45.353Z,29.31
2023-02-09T08:57:12.082Z,29.65
2023-02-09T08:59:38.573Z,29.50
2023-02-09T09:02:05.026Z,29.33
2023-02-09T09:04:31.663Z,29.60
2023-02-09T09:06:58.199Z,29.22
2023-02-09T09:09:24.846Z,29.45
2023-02-09T09:11:51.388Z,29.51
2023-02-09T09:14:17.907Z,29.33
2023-02-09T09:16:44.521Z,29.23
2023-02-09T09:19:11.186Z,29.37
2023-02-09T09:21:37.706Z,29.38
2023-02-09T09:24:04.592Z,29.39
2023-02-09T09:26:32.781Z,29.48
2023-02-09T09:28:59.344Z,29.39
2023-02-09T09:31:25.992Z,29.67
2023-02-09T09:33:52.710Z,29.47
2023-02-09T09:36:20.699Z,29.52
2023-02-09T09:38:47.195Z,29.65
2023-02-09T09:41:21.804Z,30.71
2023-02-09T09:43:49.436Z,32.72
2023-02-09T09:46:19.201Z,32.58
2023-02-09T09:48:53.264Z,32.75
2023-02-09T09:51:34.370Z,32.66
2023-02-09T09:54:03.161Z,33.17
2023-02-09T09:56:31.558Z,33.52
2023-02-09T09:58:59.611Z,34.18
2023-02-09T10:01:28.865Z,34.41
2023-02-09T10:04:02.234Z,34.47
2023-02-09T10:06:35.596Z,33.83
2023-02-09T10:09:07.048Z,33.27
2023-02-09T10:11:43.597Z,32.50
2023-02-09T10:14:10.441Z,32.42
2023-02-09T10:16:40.928Z,33.88
2023-02-09T10:19:25.228Z,32.96
2023-02-09T10:21:52.853Z,33.10
2023-02-09T10:24:31.477Z,33.62
2023-02-09T10:27:05.738Z,33.74
2023-02-09T10:29:32.332Z,33.73
2023-02-09T10:32:03.752Z,34.13
2023-02-09T10:34:43.067Z,33.82
2023-02-09T10:37:18.210Z,33.85
2023-02-09T10:39:46.376Z,34.00
2023-02-09T10:42:28.779Z,33.74
2023-02-09T10:44:59.152Z,33.75
2023-02-09T10:47:31.208Z,33.59
2023-02-09T10:50:13.242Z,33.37
2023-02-09T10:52:55.551Z,33.36
2023-02-09T10:55:24.840Z,33.30
2023-02-09T10:57:51.476Z,32.93
2023-02-09T11:00:17.882Z,32.88
2023-02-09T11:03:03.450Z,32.86
2023-02-09T11:05:35.250Z,32.57
2023-02-09T11:08:21.196Z,32.60
2023-02-09T11:10:59.032Z,31.93
2023-02-09T11:13:27.196Z,31.93
2023-02-09T11:16:26.442Z,31.74
2023-02-09T11:19:22.721Z,31.86
2023-02-09T11:22:05.724Z,31.87
2023-02-09T11:24:44.331Z,31.84
2023-02-09T11:27:49.983Z,31.83
2023-02-09T11:30:19.458Z,31.57
2023-02-09T11:33:16.290Z,31.48
2023-02-09T11:36:17.936Z,31.36
2023-02-09T11:38:52.609Z,31.29
2023-02-09T11:41:47.186Z,31.45
2023-02-09T11:44:38.503Z,31.52
2023-02-09T11:47:14.949Z,31.36
2023-02-09T11:49:49.235Z,31.28
2023-02-09T11:52:22.778Z,31.30
2023-02-09T11:54:52.809Z,31.29
2023-02-09T11:57:42.020Z,31.25
2023-02-09T12:00:19.705Z,31.29
2023-02-09T12:02:55.793Z,31.32
2023-02-09T12:05:23.140Z,31.36
2023-02-09T12:08:20.551Z,31.29
2023-02-09T12:11:04.068Z,31.32
2023-02-09T12:13:53.587Z,31.42
2023-02-09T12:16:24.719Z,31.35
2023-02-09T12:18:55.307Z,31.37
2023-02-09T12:21:27.736Z,31.62
2023-02-09T12:23:54.299Z,31.74
2023-02-09T12:26:20.704Z,31.79
2023-02-09T12:28:49.473Z,31.80
2023-02-09T12:31:16.081Z,31.76
2023-02-09T12:33:45.450Z,31.78
2023-02-09T12:36:16.077Z,31.89
2023-02-09T12:39:03.860Z,31.81
2023-02-09T12:41:50.675Z,31.75
2023-02-09T12:44:17.106Z,31.91
2023-02-09T12:46:53.564Z,31.96
2023-02-09T12:49:29.250Z,31.75
2023-02-09T12:52:01.867Z,31.93
2023-02-09T12:54:51.545Z,32.03
2023-02-09T12:57:18.771Z,32.01
2023-02-09T12:59:52.709Z,32.10
2023-02-09T13:02:48.313Z,32.28
2023-02-09T13:05:26.452Z,32.16
2023-02-09T13:08:11.092Z,32.08
2023-02-09T13:10:59.487Z,32.27
2023-02-09T13:13:28.914Z,32.29
2023-02-09T13:16:02.997Z,32.34
2023-02-09T13:18:35.225Z,32.27
2023-02-09T13:21:25.615Z,32.44
2023-02-09T13:24:10.835Z,32.23
2023-02-09T13:26:49.092Z,32.51
2023-02-09T13:29:22.147Z,32.46
2023-02-09T13:32:16.080Z,32.50
2023-02-09T13:34:48.712Z,32.71
2023-02-09T13:38:00.640Z,32.82
2023-02-09T13:40:30.408Z,32.91
2023-02-09T13:43:17.163Z,32.71
2023-02-09T13:45:55.097Z,32.77
2023-02-09T13:48:28.614Z,32.76
2023-02-09T13:50:57.620Z,32.79
2023-02-09T13:53:26.397Z,32.67
2023-02-09T13:55:56.065Z,32.74
2023-02-09T13:58:31.370Z,32.88
2023-02-09T14:01:12.557Z,32.68
2023-02-09T14:04:03.260Z,32.81
2023-02-09T14:06:36.210Z,32.83
2023-02-09T14:09:06.135Z,32.75
2023-02-09T14:11:45.685Z,32.78
2023-02-09T14:14:19.054Z,32.53
2023-02-09T14:16:53.371Z,32.71
2023-02-09T14:19:48.702Z,32.65
2023-02-09T14:22:39.519Z,32.72
2023-02-09T14:25:30.268Z,32.79
2023-02-09T14:27:57.431Z,32.70
2023-02-09T14:30:36.388Z,32.89
2023-02-09T14:33:06.328Z,32.74
2023-02-09T14:35:41.348Z,32.83
2023-02-09T14:38:36.863Z,32.93
2023-02-09T14:41:22.058Z,32.81
2023-02-09T14:44:21.990Z,32.97
2023-02-09T14:47:00.234Z,32.75
2023-02-09T14:49:28.743Z,32.85
2023-02-09T14:52:13.039Z,32.76
2023-02-09T14:54:48.337Z,32.91
2023-02-09T14:57:15.083Z,32.85
2023-02-09T14:59:41.619Z,32.94
2023-02-09T15:02:21.315Z,32.80
2023-02-09T15:04:47.903Z,33.00
2023-02-09T15:07:20.457Z,32.88
2023-02-09T15:09:47.263Z,32.85
2023-02-09T15:12:23.965Z,32.97
2023-02-09T15:14:54.216Z,32.97
2023-02-09T15:17:25.743Z,32.95
2023-02-09T15:19:52.625Z,32.94
2023-02-09T15:22:20.126Z,33.00
2023-02-09T15:24:48.621Z,32.79
2023-02-09T15:27:33.636Z,33.13
2023-02-09T15:30:03.786Z,32.95
2023-02-09T15:32:30.938Z,33.05
2023-02-09T15:34:57.461Z,33.07
2023-02-09T15:37:27.933Z,33.13
2023-02-09T15:40:01.653Z,32.93
2023-02-09T15:42:46.879Z,33.12
2023-02-09T15:45:41.524Z,33.20
2023-02-09T15:48:09.015Z,33.08
2023-02-09T15:50:42.237Z,33.11
2023-02-09T15:53:12.902Z,33.29
2023-02-09T15:55:39.795Z,33.32
2023-02-09T15:58:13.863Z,33.40
2023-02-09T16:00:41.096Z,33.63
2023-02-09T16:03:16.350Z,33.84
2023-02-09T16:05:44.255Z,34.15
2023-02-09T16:08:26.810Z,34.07
2023-02-09T16:10:54.257Z,34.04
2023-02-09T16:13:21.057Z,34.24
2023-02-09T16:15:48.700Z,34.18
2023-02-09T16:18:15.386Z,34.23
2023-02-09T16:20:48.319Z,34.08
2023-02-09T16:23:20.914Z,34.05
2023-02-09T16:25:52.319Z,33.98
2023-02-09T16:28:20.586Z,33.89
2023-02-09T16:30:51.471Z,34.03
2023-02-09T16:33:18.562Z,34.01
2023-02-09T16:35:50.714Z,33.92
2023-02-09T16:38:19.510Z,34.04
2023-02-09T16:40:46.538Z,33.98
2023-02-09T16:43:13.931Z,33.85
2023-02-09T16:45:48.520Z,33.97
2023-02-09T16:48:27.993Z,33.99
2023-02-09T16:50:56.444Z,33.94
2023-02-09T16:53:32.796Z,34.03
2023-02-09T16:56:05.756Z,33.97
2023-02-09T16:58:32.694Z,34.04
2023-02-09T17:00:59.295Z,33.92
2023-02-09T17:03:40.119Z,33.96
2023-02-09T17:06:15.061Z,33.82
2023-02-09T17:08:41.577Z,33.83
2023-02-09T17:11:16.784Z,33.90
2023-02-09T17:13:43.712Z,33.91
2023-02-09T17:16:17.978Z,33.88
2023-02-09T17:18:46.916Z,33.76
2023-02-09T17:21:21.350Z,33.71
2023-02-09T17:23:48.387Z,33.64
2023-02-09T17:26:15.271Z,33.61
2023-02-09T17:28:43.131Z,33.79
2023-02-09T17:31:38.254Z,33.68
2023-02-09T17:34:15.334Z,33.70
2023-02-09T17:36:43.355Z,33.48
2023-02-09T17:39:11.203Z,33.54
2023-02-09T17:41:46.464Z,33.63
2023-02-09T17:44:43.723Z,33.72
2023-02-09T17:47:20.726Z,33.81
2023-02-09T17:49:47.500Z,34.02
2023-02-09T17:52:19.305Z,34.18
2023-02-09T17:54:46.446Z,34.26
2023-02-09T17:57:14.657Z,34.18
2023-02-09T17:59:41.240Z,34.46
2023-02-09T18:02:15.468Z,34.54
2023-02-09T18:04:42.404Z,34.56
2023-02-09T18:07:09.656Z,34.65
2023-02-09T18:09:36.744Z,34.69
2023-02-09T18:12:21.378Z,35.00
2023-02-09T18:14:48.559Z,34.87
2023-02-09T18:17:15.110Z,34.85
2023-02-09T18:19:41.588Z,34.90
2023-02-09T18:22:14.182Z,34.95
2023-02-09T18:24:41.801Z,34.96
2023-02-09T18:27:13.395Z,34.89
2023-02-09T18:29:39.970Z,35.02
2023-02-09T18:32:07.167Z,34.97
2023-02-09T18:34:35.778Z,35.04
2023-02-09T18:37:02.264Z,35.16
2023-02-09T18:39:30.694Z,35.07
2023-02-09T18:41:57.455Z,35.19
2023-02-09T18:44:28.711Z,35.09
2023-02-09T18:46:56.997Z,35.08
2023-02-09T18:49:23.496Z,35.08
2023-02-09T18:51:52.018Z,35.13
2023-02-09T18:54:18.604Z,35.02
2023-02-09T18:56:45.105Z,35.04
2023-02-09T18:59:11.600Z,35.03
2023-02-09T19:01:38.600Z,35.04
2023-02-09T19:04:05.522Z,34.93
2023-02-09T19:06:35.414Z,34.95
2023-02-09T19:09:02.268Z,34.95
2023-02-09T19:11:28.776Z,34.83
2023-02-09T19:14:13.814Z,34.95
2023-02-09T19:16:41.231Z,34.96
2023-02-09T19:19:09.352Z,34.93
2023-02-09T19:21:36.155Z,35.00
2023-02-09T19:24:02.738Z,34.80
2023-02-09T19:26:29.242Z,34.87
2023-02-09T19:28:58.908Z,34.84
2023-02-09T19:31:25.622Z,34.57
2023-02-09T19:33:56.581Z,34.79
2023-02-09T19:36:24.481Z,34.85
2023-02-09T19:38:51.020Z,34.80
2023-02-09T19:41:17.516Z,34.91
2023-02-09T19:43:44.089Z,34.78
2023-02-09T19:46:10.893Z,34.93
2023-02-09T19:48:40.255Z,34.74
2023-02-09T19:51:08.100Z,34.72
2023-02-09T19:53:35.456Z,34.80
2023-02-09T19:56:02.382Z,34.88
2023-02-09T19:58:29.047Z,34.97
2023-02-09T20:00:56.126Z,34.96
2023-02-09T20:03:23.947Z,34.94
2023-02-09T20:05:50.787Z,34.88
2023-02-09T20:08:19.527Z,34.70
2023-02-09T20:10:46.581Z,34.71
2023-02-09T20:13:13.790Z,34.82
2023-02-09T20:15:42.328Z,34.92
2023-02-09T20:18:09.146Z,34.69
2023-02-09T20:20:35.669Z,34.76
2023-02-09T20:23:02.230Z,34.85
2023-02-09T20:25:28.820Z,34.80
2023-02-09T20:27:55.727Z,34.72
2023-02-09T20:30:22.586Z,34.73
2023-02-09T20:32:49.109Z,34.71
2023-02-09T20:35:15.929Z,34.60
2023-02-09T20:37:42.489Z,34.65
2023-02-09T20:40:11.408Z,34.64
2023-02-09T20:42:57.431Z,34.52
2023-02-09T20:45:42.780Z,34.72
2023-02-09T20:48:09.440Z,34.70
2023-02-09T20:50:36.073Z,34.68
2023-02-09T20:53:02.771Z,34.81
2023-02-09T20:55:30.038Z,34.70
2023-02-09T20:57:56.854Z,34.69
2023-02-09T21:00:23.444Z,34.55
2023-02-09T21:02:49.988Z,34.68
2023-02-09T21:05:16.829Z,34.73
2023-02-09T21:07:43.683Z,34.86
2023-02-09T21:10:12.811Z,34.70
2023-02-09T21:12:39.743Z,34.86
2023-02-09T21:15:06.924Z,34.66
2023-02-09T21:17:33.705Z,34.46
2023-02-09T21:20:00.274Z,34.75
2023-02-09T21:22:26.897Z,34.66
2023-02-09T21:24:53.391Z,34.77
2023-02-09T21:27:20.471Z,34.66
2023-02-09T21:29:47.199Z,34.54
2023-02-09T21:32:13.704Z,34.51
2023-02-09T21:34:40.303Z,34.55
2023-02-09T21:37:10.125Z,34.52
2023-02-09T21:39:36.977Z,34.55
2023-02-09T21:42:22.030Z,34.51
2023-02-09T21:44:48.682Z,34.38
2023-02-09T21:47:15.202Z,34.32
2023-02-09T21:49:41.761Z,34.43
2023-02-09T21:52:08.621Z,34.34
2023-02-09T21:54:35.135Z,34.33
2023-02-09T21:57:02.129Z,34.19
2023-02-09T21:59:29.201Z,34.24
2023-02-09T22:01:56.046Z,34.18
2023-02-09T22:04:22.656Z,34.13
2023-02-09T22:06:49.388Z,34.04
2023-02-09T22:09:16.356Z,34.00
2023-02-09T22:11:42.984Z,33.98
2023-02-09T22:14:09.472Z,34.02
2023-02-09T22:16:36.095Z,33.89
2023-02-09T22:19:03.608Z,33.85
2023-02-09T22:21:30.197Z,33.84
2023-02-09T22:23:56.719Z,33.87
2023-02-09T22:26:23.303Z,33.76
2023-02-09T22:28:49.930Z,33.80
2023-02-09T22:31:18.544Z,33.80
2023-02-09T22:33:45.307Z,33.58
2023-02-09T22:36:14.384Z,33.54
2023-02-09T22:38:41.219Z,33.68
2023-02-09T22:41:21.492Z,33.70
2023-02-09T22:43:54.292Z,33.56
2023-02-09T22:46:34.809Z,33.60
2023-02-09T22:49:05.618Z,33.49
2023-02-09T22:51:32.788Z,33.54
2023-02-09T22:54:00.515Z,33.52
2023-02-09T22:56:28.361Z,33.37
2023-02-09T22:58:59.835Z,33.32
2023-02-09T23:01:27.136Z,33.33
2023-02-09T23:03:54.449Z,33.39
2023-02-09T23:06:27.154Z,33.34
2023-02-09T23:09:04.306Z,33.29
2023-02-09T23:11:31.656Z,33.28
2023-02-09T23:14:14.206Z,33.29
2023-02-09T23:16:42.456Z,33.27
2023-02-09T23:19:13.146Z,33.09
2023-02-09T23:21:42.852Z,33.01
2023-02-09T23:26:36.227Z,33.08
2023-02-09T23:29:06.942Z,33.10
2023-02-09T23:31:34.052Z,33.03
2023-02-09T23:34:00.693Z,33.00
2023-02-09T23:36:30.165Z,32.98
2023-02-09T23:38:59.090Z,32.96
2023-02-09T23:41:26.492Z,32.91
2023-02-09T23:43:54.286Z,32.95
2023-02-09T23:46:23.246Z,32.83
2023-02-09T23:48:50.386Z,32.92
2023-02-09T23:51:19.752Z,32.84
2023-02-09T23:53:47.422Z,32.80
2023-02-09T23:56:15.726Z,32.83
2023-02-09T23:58:45.161Z,32.81
